createdAt,value
2019-05-02T00:00:33.503Z,4.67
2019-05-02T00:03:04.569Z,4.40
2019-05-02T00:05:33.275Z,4.53
2019-05-02T00:08:01.982Z,4.60
2019-05-02T00:10:31.347Z,4.87
2019-05-02T00:13:00.343Z,4.35
2019-05-02T00:15:33.190Z,4.70
2019-05-02T00:18:01.465Z,4.67
2019-05-02T00:20:29.406Z,4.95
2019-05-02T00:22:58.030Z,4.75
2019-05-02T00:25:26.695Z,4.25
2019-05-02T00:27:55.369Z,4.50
2019-05-02T00:30:24.149Z,4.78
2019-05-02T00:32:53.105Z,4.35
2019-05-02T00:35:23.035Z,4.40
2019-05-02T00:37:51.640Z,4.28
2019-05-02T00:40:25.521Z,4.47
2019-05-02T00:42:53.266Z,4.45
2019-05-02T00:45:23.912Z,4.97
2019-05-02T00:47:58.393Z,4.80
2019-05-02T00:50:28.546Z,3.65
2019-05-02T00:52:57.108Z,3.95
2019-05-02T00:55:28.896Z,4.47
2019-05-02T00:57:56.916Z,4.67
2019-05-02T01:00:25.703Z,4.42
2019-05-02T01:02:58.827Z,4.92
2019-05-02T01:05:27.440Z,4.33
2019-05-02T01:08:00.772Z,4.95
2019-05-02T01:10:26.599Z,5.30
2019-05-02T01:12:55.184Z,4.58
2019-05-02T01:15:23.752Z,4.40
2019-05-02T01:17:52.279Z,4.40
2019-05-02T01:20:22.221Z,4.28
2019-05-02T01:22:52.358Z,4.45
2019-05-02T01:25:21.287Z,3.90
2019-05-02T01:27:51.477Z,4.20
2019-05-02T01:30:21.730Z,4.85
2019-05-02T01:32:51.984Z,4.87
2019-05-02T01:35:32.649Z,5.00
2019-05-02T01:38:02.981Z,4.83
2019-05-02T01:40:31.515Z,3.80
2019-05-02T01:43:03.134Z,3.77
2019-05-02T01:45:31.734Z,4.75
2019-05-02T01:48:00.300Z,3.98
2019-05-02T01:50:29.051Z,4.37
2019-05-02T01:53:00.207Z,4.72
2019-05-02T01:55:28.794Z,5.08
2019-05-02T01:57:57.326Z,5.22
2019-05-02T02:00:25.927Z,4.97
2019-05-02T02:02:54.470Z,4.35
2019-05-02T02:05:23.018Z,4.20
2019-05-02T02:07:55.454Z,4.08
2019-05-02T02:10:21.891Z,4.42
2019-05-02T02:13:02.876Z,4.40
2019-05-02T02:15:24.865Z,4.35
2019-05-02T02:17:51.535Z,4.28
2019-05-02T02:20:22.810Z,4.45
2019-05-02T02:22:58.931Z,3.98
2019-05-02T02:25:36.237Z,3.92
2019-05-02T02:28:02.743Z,4.45
2019-05-02T02:30:31.283Z,4.28
2019-05-02T02:33:07.433Z,4.33
2019-05-02T02:35:30.154Z,4.25
2019-05-02T02:37:58.709Z,5.05
2019-05-02T02:40:32.742Z,4.10
2019-05-02T02:42:57.510Z,4.35
2019-05-02T02:45:51.930Z,4.72
2019-05-02T02:48:18.257Z,4.90
2019-05-02T02:50:46.805Z,5.00
2019-05-02T02:53:18.362Z,4.60
2019-05-02T02:55:47.300Z,5.00
2019-05-02T02:58:15.930Z,5.40
2019-05-02T03:00:47.594Z,4.78
2019-05-02T03:03:14.664Z,4.72
2019-05-02T03:05:43.211Z,4.90
2019-05-02T03:08:11.901Z,3.90
2019-05-02T03:10:45.056Z,4.42
2019-05-02T03:13:27.336Z,5.50
2019-05-02T03:16:07.084Z,5.03
2019-05-02T03:18:39.512Z,4.87
2019-05-02T03:21:01.255Z,5.10
2019-05-02T03:23:30.234Z,5.35
2019-05-02T03:25:58.779Z,5.30
2019-05-02T03:28:27.376Z,4.90
2019-05-02T03:30:56.578Z,5.78
2019-05-02T03:33:25.253Z,4.22
2019-05-02T03:35:53.859Z,4.80
2019-05-02T03:38:31.354Z,4.85
2019-05-02T03:40:52.863Z,5.78
2019-05-02T03:43:25.509Z,4.40
2019-05-02T03:45:51.893Z,4.55
2019-05-02T03:48:25.565Z,4.33
2019-05-02T03:50:51.002Z,4.60
2019-05-02T03:53:24.982Z,4.78
2019-05-02T03:55:50.553Z,3.65
2019-05-02T03:58:19.144Z,4.33
2019-05-02T04:00:47.696Z,6.00
2019-05-02T04:03:16.368Z,4.28
2019-05-02T04:05:44.928Z,4.03
2019-05-02T04:08:20.648Z,5.15
2019-05-02T04:10:52.935Z,5.10
2019-05-02T04:13:17.346Z,5.72
2019-05-02T04:15:46.389Z,5.33
2019-05-02T04:18:17.878Z,5.42
2019-05-02T04:20:49.781Z,4.83
2019-05-02T04:23:21.420Z,5.58
2019-05-02T04:25:49.485Z,5.40
2019-05-02T04:28:18.100Z,5.47
2019-05-02T04:30:51.368Z,5.53
2019-05-02T04:33:17.047Z,5.65
2019-05-02T04:35:45.571Z,5.58
2019-05-02T04:38:20.194Z,5.08
2019-05-02T04:40:46.404Z,5.37
2019-05-02T04:43:14.561Z,5.80
2019-05-02T04:45:55.188Z,5.35
2019-05-02T04:48:13.366Z,5.28
2019-05-02T04:50:41.930Z,4.83
2019-05-02T04:53:10.456Z,5.35
2019-05-02T04:55:39.016Z,5.75
2019-05-02T04:58:08.370Z,4.70
2019-05-02T05:00:39.212Z,6.12
2019-05-02T05:03:15.302Z,5.65
2019-05-02T05:05:40.289Z,5.45
2019-05-02T05:08:07.871Z,5.87
2019-05-02T05:10:41.495Z,5.83
2019-05-02T05:13:07.726Z,5.60
2019-05-02T05:15:44.847Z,5.60
2019-05-02T05:18:10.508Z,5.87
2019-05-02T05:20:38.561Z,5.45
2019-05-02T05:23:08.220Z,5.37
2019-05-02T05:25:38.578Z,5.17
2019-05-02T05:28:09.026Z,5.35
2019-05-02T05:30:44.967Z,5.58
2019-05-02T05:33:10.189Z,4.35
2019-05-02T05:35:38.522Z,4.65
2019-05-02T05:38:07.768Z,4.65
2019-05-02T05:40:37.593Z,5.90
2019-05-02T05:43:14.135Z,5.40
2019-05-02T05:45:50.290Z,4.90
2019-05-02T05:48:08.290Z,6.00
2019-05-02T05:50:41.146Z,4.95
2019-05-02T05:53:07.972Z,6.20
2019-05-02T05:55:38.309Z,4.58
2019-05-02T05:58:14.600Z,4.15
2019-05-02T06:00:38.072Z,4.78
2019-05-02T06:03:13.137Z,4.53
2019-05-02T06:05:38.530Z,4.30
2019-05-02T06:08:08.201Z,4.92
2019-05-02T06:10:38.953Z,4.80
2019-05-02T06:13:10.880Z,6.53
2019-05-02T06:15:39.039Z,4.80
2019-05-02T06:18:07.575Z,4.30
2019-05-02T06:20:36.151Z,4.60
2019-05-02T06:23:04.820Z,4.12
2019-05-02T06:25:36.395Z,4.22
2019-05-02T06:28:05.399Z,4.95
2019-05-02T06:30:34.079Z,4.30
2019-05-02T06:33:02.599Z,3.80
2019-05-02T06:35:31.205Z,3.20
2019-05-02T06:37:59.732Z,4.00
2019-05-02T06:40:28.292Z,3.83
2019-05-02T06:42:56.891Z,3.53
2019-05-02T06:45:25.596Z,3.23
2019-05-02T06:47:54.133Z,3.73
2019-05-02T06:50:24.765Z,3.00
2019-05-02T06:52:52.956Z,2.70
2019-05-02T06:55:21.520Z,3.30
2019-05-02T06:57:51.704Z,3.03
2019-05-02T07:00:21.079Z,3.50
2019-05-02T07:02:49.635Z,3.10
2019-05-02T07:05:18.248Z,3.33
2019-05-02T07:07:46.811Z,3.23
2019-05-02T07:10:20.111Z,3.93
2019-05-02T07:12:51.163Z,3.50
2019-05-02T07:15:38.575Z,3.30
2019-05-02T07:18:10.745Z,3.40
2019-05-02T07:20:40.470Z,3.23
2019-05-02T07:23:10.705Z,4.03
2019-05-02T07:25:43.939Z,3.07
2019-05-02T07:28:10.830Z,2.37
2019-05-02T07:30:40.039Z,3.73
2019-05-02T07:33:08.603Z,2.40
2019-05-02T07:35:37.131Z,3.10
2019-05-02T07:38:05.775Z,2.03
2019-05-02T07:40:34.366Z,2.43
2019-05-02T07:43:03.048Z,2.40
2019-05-02T07:45:31.759Z,3.27
2019-05-02T07:48:01.570Z,2.77
2019-05-02T07:50:30.311Z,2.83
2019-05-02T07:52:58.843Z,2.73
2019-05-02T07:55:30.275Z,2.67
2019-05-02T07:57:57.580Z,2.37
2019-05-02T08:00:26.265Z,3.17
2019-05-02T08:02:57.963Z,4.80
2019-05-02T08:05:25.085Z,3.30
2019-05-02T08:07:55.206Z,3.33
2019-05-02T08:10:24.142Z,2.93
2019-05-02T08:12:52.731Z,2.80
2019-05-02T08:15:24.305Z,2.90
2019-05-02T08:17:53.735Z,3.10
2019-05-02T08:20:21.950Z,3.47
2019-05-02T08:22:50.752Z,3.67
2019-05-02T08:25:19.555Z,3.60
2019-05-02T08:27:58.886Z,3.53
2019-05-02T08:30:29.227Z,3.50
2019-05-02T08:32:57.766Z,3.60
2019-05-02T08:35:28.294Z,3.77
2019-05-02T08:37:56.610Z,3.90
2019-05-02T08:40:25.198Z,3.50
2019-05-02T08:42:53.843Z,3.30
2019-05-02T08:45:22.471Z,3.00
2019-05-02T08:47:51.309Z,3.60
2019-05-02T08:50:20.889Z,3.70
2019-05-02T08:52:49.517Z,3.63
2019-05-02T08:55:18.076Z,3.57
2019-05-02T08:57:46.679Z,3.63
2019-05-02T09:00:16.059Z,4.20
2019-05-02T09:02:44.668Z,3.43
2019-05-02T09:05:13.581Z,6.87
2019-05-02T09:07:43.116Z,3.53
2019-05-02T09:10:12.710Z,4.17
2019-05-02T09:12:45.068Z,3.87
2019-05-02T09:15:11.958Z,3.90
2019-05-02T09:17:45.500Z,3.27
2019-05-02T09:20:16.582Z,4.43
2019-05-02T09:22:46.582Z,4.10
2019-05-02T09:25:13.396Z,4.90
2019-05-02T09:27:42.278Z,4.10
2019-05-02T09:30:12.178Z,3.80
2019-05-02T09:32:41.879Z,3.83
2019-05-02T09:35:11.694Z,4.00
2019-05-02T09:37:41.985Z,5.07
2019-05-02T09:40:16.373Z,4.07
2019-05-02T09:42:43.050Z,3.30
2019-05-02T09:45:22.964Z,3.30
2019-05-02T09:48:01.571Z,3.93
2019-05-02T09:50:29.407Z,4.03
2019-05-02T09:52:53.843Z,4.50
2019-05-02T09:55:22.666Z,3.50
2019-05-02T09:57:51.982Z,3.80
2019-05-02T10:00:32.225Z,4.20
2019-05-02T10:02:58.652Z,4.70
2019-05-02T10:05:27.225Z,3.37
2019-05-02T10:07:57.445Z,4.13
2019-05-02T10:10:26.365Z,4.10
2019-05-02T10:12:54.887Z,4.50
2019-05-02T10:15:23.596Z,4.40
2019-05-02T10:17:52.191Z,4.20
2019-05-02T10:20:23.479Z,3.13
2019-05-02T10:22:53.013Z,4.00
2019-05-02T10:25:23.167Z,3.20
2019-05-02T10:27:52.349Z,3.37
2019-05-02T10:30:23.538Z,3.57
2019-05-02T10:32:57.163Z,3.17
2019-05-02T10:35:27.588Z,3.10
2019-05-02T10:37:54.392Z,3.53
2019-05-02T10:40:22.943Z,3.80
2019-05-02T10:42:52.256Z,3.40
2019-05-02T10:45:22.550Z,3.20
2019-05-02T10:47:52.671Z,2.80
2019-05-02T10:50:28.880Z,3.10
2019-05-02T10:52:57.428Z,4.23
2019-05-02T10:55:25.991Z,3.30
2019-05-02T10:57:54.522Z,3.30
2019-05-02T11:00:26.829Z,3.17
2019-05-02T11:03:13.105Z,2.53
2019-05-02T11:05:43.321Z,3.03
2019-05-02T11:08:12.075Z,3.17
2019-05-02T11:10:42.255Z,2.90
2019-05-02T11:13:18.187Z,3.73
2019-05-02T11:16:05.718Z,3.33
2019-05-02T11:18:52.590Z,4.20
2019-05-02T11:21:22.931Z,3.20
2019-05-02T11:23:52.563Z,2.73
2019-05-02T11:26:24.919Z,3.10
2019-05-02T11:28:52.255Z,3.30
2019-05-02T11:31:21.895Z,3.03
2019-05-02T11:33:52.677Z,2.97
2019-05-02T11:36:22.298Z,2.53
2019-05-02T11:39:00.011Z,3.10
2019-05-02T11:41:22.414Z,2.93
2019-05-02T11:43:54.168Z,2.70
2019-05-02T11:46:22.138Z,2.80
2019-05-02T11:48:56.319Z,2.77
2019-05-02T11:51:22.648Z,2.40
2019-05-02T11:53:52.763Z,2.70
2019-05-02T11:56:22.343Z,3.17
2019-05-02T11:58:52.812Z,3.27
2019-05-02T12:01:35.047Z,2.37
2019-05-02T12:03:52.669Z,2.93
2019-05-02T12:06:22.554Z,3.23
2019-05-02T12:08:52.626Z,2.90
2019-05-02T12:11:22.910Z,2.27
2019-05-02T12:13:55.433Z,3.27
2019-05-02T12:16:22.963Z,3.30
2019-05-02T12:18:53.811Z,2.73
2019-05-02T12:21:22.948Z,3.40
2019-05-02T12:23:52.722Z,2.80
2019-05-02T12:26:22.140Z,2.80
2019-05-02T12:28:52.705Z,4.33
2019-05-02T12:31:26.506Z,3.23
2019-05-02T12:33:56.158Z,2.50
2019-05-02T12:36:24.823Z,3.20
2019-05-02T12:38:53.528Z,2.10
2019-05-02T12:41:25.102Z,2.73
2019-05-02T12:43:52.595Z,2.50
2019-05-02T12:46:22.187Z,2.57
2019-05-02T12:48:51.918Z,3.00
2019-05-02T12:51:22.551Z,2.80
2019-05-02T12:53:52.823Z,2.80
2019-05-02T12:56:22.893Z,2.37
2019-05-02T12:58:52.934Z,2.73
2019-05-02T13:01:22.104Z,2.80
2019-05-02T13:03:52.586Z,3.40
2019-05-02T13:06:21.956Z,2.60
2019-05-02T13:08:52.572Z,2.80
2019-05-02T13:11:32.112Z,2.90
2019-05-02T13:14:02.184Z,3.40
2019-05-02T13:16:33.340Z,2.57
2019-05-02T13:19:03.098Z,2.30
2019-05-02T13:21:50.369Z,2.67
2019-05-02T13:24:28.705Z,3.00
2019-05-02T13:26:59.509Z,3.00
2019-05-02T13:29:23.740Z,2.30
2019-05-02T13:31:53.995Z,2.80
2019-05-02T13:34:27.359Z,2.43
2019-05-02T13:36:57.920Z,2.50
2019-05-02T13:39:44.580Z,2.10
2019-05-02T13:42:13.922Z,2.67
2019-05-02T13:44:50.037Z,2.83
2019-05-02T13:47:23.213Z,3.63
2019-05-02T13:49:56.349Z,2.93
2019-05-02T13:52:22.646Z,2.93
2019-05-02T13:54:52.255Z,3.60
2019-05-02T13:57:21.822Z,2.13
2019-05-02T13:59:52.588Z,2.10
2019-05-02T14:02:38.412Z,4.70
2019-05-02T14:05:15.250Z,2.50
2019-05-02T14:07:53.145Z,2.27
2019-05-02T14:10:33.697Z,3.23
2019-05-02T14:13:03.213Z,1.87
2019-05-02T14:15:35.957Z,2.10
2019-05-02T14:18:04.873Z,1.90
2019-05-02T14:20:33.547Z,2.43
2019-05-02T14:23:02.322Z,2.30
2019-05-02T14:25:32.132Z,2.47
2019-05-02T14:28:02.704Z,2.60
2019-05-02T14:30:37.203Z,2.97
2019-05-02T14:33:03.055Z,3.00
2019-05-02T14:35:36.424Z,2.23
2019-05-02T14:38:09.161Z,2.50
2019-05-02T14:41:02.992Z,2.37
2019-05-02T14:43:52.589Z,3.80
2019-05-02T14:46:22.246Z,2.13
2019-05-02T14:48:52.232Z,2.20
2019-05-02T14:51:27.119Z,2.70
2019-05-02T14:53:52.740Z,2.27
2019-05-02T14:56:46.208Z,2.47
2019-05-02T14:59:15.333Z,2.93
2019-05-02T15:01:42.864Z,2.90
2019-05-02T15:04:12.977Z,2.13
2019-05-02T15:06:45.367Z,2.90
2019-05-02T15:09:12.230Z,3.03
2019-05-02T15:11:57.817Z,2.30
2019-05-02T15:14:27.923Z,3.03
2019-05-02T15:16:58.363Z,2.57
2019-05-02T15:19:27.185Z,2.00
2019-05-02T15:21:56.135Z,3.40
2019-05-02T15:24:27.641Z,2.17
2019-05-02T15:26:55.206Z,2.17
2019-05-02T15:29:27.061Z,3.50
2019-05-02T15:32:05.261Z,2.13
2019-05-02T15:34:30.448Z,1.70
2019-05-02T15:36:59.055Z,2.13
2019-05-02T15:41:57.780Z,2.50
2019-05-02T15:44:27.139Z,2.00
2019-05-02T15:46:58.418Z,2.33
2019-05-02T15:49:26.014Z,2.20
2019-05-02T15:51:54.573Z,1.97
2019-05-02T15:54:23.101Z,2.63
2019-05-02T15:57:00.800Z,2.10
2019-05-02T15:59:37.389Z,2.77
2019-05-02T16:02:06.374Z,2.10
2019-05-02T16:04:36.769Z,2.10
2019-05-02T16:07:08.374Z,2.13
2019-05-02T16:09:35.979Z,3.03
2019-05-02T16:12:05.246Z,2.17
2019-05-02T16:14:35.969Z,2.80
2019-05-02T16:17:04.291Z,2.50
2019-05-02T16:19:34.590Z,2.90
2019-05-02T16:22:17.059Z,2.47
2019-05-02T16:24:48.859Z,2.77
2019-05-02T16:27:16.361Z,3.17
2019-05-02T16:29:46.407Z,2.97
2019-05-02T16:32:30.885Z,2.60
2019-05-02T16:35:11.926Z,2.43
2019-05-02T16:37:33.692Z,2.40
2019-05-02T16:40:02.672Z,2.90
2019-05-02T16:42:32.842Z,2.73
2019-05-02T16:45:02.633Z,2.90
2019-05-02T16:47:32.608Z,2.80
2019-05-02T16:50:02.478Z,2.97
2019-05-02T16:52:32.716Z,2.90
2019-05-02T16:55:02.909Z,3.33
2019-05-02T16:57:34.839Z,3.47
2019-05-02T17:00:06.018Z,3.03
2019-05-02T17:02:32.500Z,3.13
2019-05-02T17:05:08.396Z,3.23
2019-05-02T17:07:34.806Z,3.40
2019-05-02T17:10:08.514Z,3.37
2019-05-02T17:12:38.458Z,3.27
2019-05-02T17:15:31.461Z,2.87
2019-05-02T17:17:58.268Z,3.27
2019-05-02T17:20:26.867Z,3.53
2019-05-02T17:23:01.966Z,3.47
2019-05-02T17:25:25.843Z,3.20
2019-05-02T17:28:01.117Z,4.23
2019-05-02T17:30:24.875Z,4.40
2019-05-02T17:32:53.549Z,4.23
2019-05-02T17:35:22.792Z,4.07
2019-05-02T17:37:52.397Z,4.07
2019-05-02T17:40:22.560Z,3.70
2019-05-02T17:42:52.416Z,3.90
2019-05-02T17:45:23.756Z,3.93
2019-05-02T17:47:51.843Z,4.67
2019-05-02T17:50:42.230Z,4.40
2019-05-02T17:53:11.644Z,4.73
2019-05-02T17:55:42.660Z,4.20
2019-05-02T17:58:16.408Z,4.70
2019-05-02T18:00:47.405Z,4.00
2019-05-02T18:03:15.495Z,4.40
2019-05-02T18:05:44.196Z,4.60
2019-05-02T18:08:14.735Z,5.00
2019-05-02T18:10:43.141Z,5.13
2019-05-02T18:13:12.213Z,5.13
2019-05-02T18:15:41.680Z,4.90
2019-05-02T18:18:10.538Z,4.70
2019-05-02T18:20:42.628Z,6.00
2019-05-02T18:23:09.339Z,6.17
2019-05-02T18:25:38.043Z,5.50
2019-05-02T18:28:06.836Z,5.20
2019-05-02T18:30:35.608Z,4.90
2019-05-02T18:33:07.162Z,5.00
2019-05-02T18:35:37.356Z,6.10
2019-05-02T18:38:05.491Z,15.20
2019-05-02T18:40:34.119Z,6.00
2019-05-02T18:43:05.928Z,5.77
2019-05-02T18:45:34.691Z,4.73
2019-05-02T18:48:06.693Z,5.07
2019-05-02T18:50:41.780Z,5.40
2019-05-02T18:53:08.133Z,5.30
2019-05-02T18:55:36.906Z,5.93
2019-05-02T18:58:05.987Z,4.90
2019-05-02T19:00:38.163Z,5.20
2019-05-02T19:03:07.430Z,6.87
2019-05-02T19:05:36.477Z,11.63
2019-05-02T19:08:05.382Z,14.37
2019-05-02T19:10:37.049Z,14.37
2019-05-02T19:13:06.143Z,13.70
2019-05-02T19:15:39.621Z,19.40
2019-05-02T19:18:10.644Z,19.90
2019-05-02T19:20:56.788Z,9.23
2019-05-02T19:23:22.615Z,9.13
2019-05-02T19:25:52.848Z,6.67
2019-05-02T19:28:29.136Z,5.27
2019-05-02T19:30:57.475Z,4.83
2019-05-02T19:33:27.440Z,4.67
2019-05-02T19:35:55.970Z,3.33
2019-05-02T19:38:26.220Z,3.97
2019-05-02T19:40:58.110Z,3.50
2019-05-02T19:43:25.397Z,3.10
2019-05-02T19:45:54.286Z,3.03
2019-05-02T19:48:22.897Z,3.73
2019-05-02T19:50:51.855Z,3.53
2019-05-02T19:53:22.654Z,3.83
2019-05-02T19:55:52.069Z,3.87
2019-05-02T19:58:20.926Z,3.10
2019-05-02T20:00:49.862Z,3.43
2019-05-02T20:03:21.828Z,3.50
2019-05-02T20:05:51.741Z,3.17
2019-05-02T20:08:23.150Z,2.90
2019-05-02T20:10:56.672Z,3.20
2019-05-02T20:13:27.935Z,2.23
2019-05-02T20:15:57.084Z,2.20
2019-05-02T20:18:28.092Z,2.90
2019-05-02T20:20:57.424Z,2.40
2019-05-02T20:23:31.565Z,2.17
2019-05-02T20:25:56.290Z,2.23
2019-05-02T20:28:24.992Z,1.63
2019-05-02T20:30:53.523Z,1.70
2019-05-02T20:33:22.349Z,2.00
2019-05-02T20:35:52.653Z,1.67
2019-05-02T20:38:21.893Z,2.30
2019-05-02T20:40:52.246Z,1.53
2019-05-02T20:43:22.675Z,1.80
2019-05-02T20:45:52.843Z,2.47
2019-05-02T20:48:22.801Z,1.60
2019-05-02T20:50:52.189Z,1.60
2019-05-02T20:53:30.759Z,1.63
2019-05-02T20:55:52.364Z,1.73
2019-05-02T20:58:22.049Z,1.50
2019-05-02T21:01:05.108Z,1.90
2019-05-02T21:03:21.338Z,1.13
2019-05-02T21:05:52.070Z,1.33
2019-05-02T21:08:38.760Z,1.37
2019-05-02T21:11:07.705Z,1.40
2019-05-02T21:13:36.327Z,1.47
2019-05-02T21:16:05.236Z,1.73
2019-05-02T21:18:33.767Z,1.37
2019-05-02T21:21:02.404Z,1.37
2019-05-02T21:23:41.978Z,1.63
2019-05-02T21:26:01.860Z,1.27
2019-05-02T21:28:32.137Z,1.00
2019-05-02T21:31:02.807Z,1.30
2019-05-02T21:33:33.479Z,1.40
2019-05-02T21:36:02.477Z,0.97
2019-05-02T21:38:31.970Z,1.30
2019-05-02T21:41:00.774Z,1.20
2019-05-02T21:43:31.559Z,0.83
2019-05-02T21:45:59.636Z,1.00
2019-05-02T21:48:28.855Z,1.30
2019-05-02T21:51:12.133Z,1.17
2019-05-02T21:53:54.955Z,0.83
2019-05-02T21:56:17.512Z,1.20
2019-05-02T21:59:04.000Z,1.37
2019-05-02T22:01:33.371Z,1.30
2019-05-02T22:04:02.322Z,0.80
2019-05-02T22:06:32.259Z,1.10
2019-05-02T22:09:02.909Z,1.47
2019-05-02T22:11:31.996Z,0.93
2019-05-02T22:14:02.368Z,0.90
2019-05-02T22:16:32.701Z,1.20
2019-05-02T22:19:02.890Z,0.90
2019-05-02T22:21:32.387Z,1.13
2019-05-02T22:24:10.406Z,0.97
2019-05-02T22:26:32.785Z,1.30
2019-05-02T22:29:02.086Z,0.90
2019-05-02T22:31:32.352Z,1.13
2019-05-02T22:34:02.217Z,0.90
2019-05-02T22:36:32.705Z,1.10
2019-05-02T22:39:03.042Z,1.10
2019-05-02T22:41:32.570Z,1.10
2019-05-02T22:44:01.859Z,1.17
2019-05-02T22:46:42.870Z,1.27
2019-05-02T22:49:14.774Z,1.10
2019-05-02T22:51:42.790Z,1.47
2019-05-02T22:54:23.269Z,1.30
2019-05-02T22:56:42.580Z,1.23
2019-05-02T22:59:11.408Z,1.50
2019-05-02T23:01:41.945Z,1.47
2019-05-02T23:04:12.472Z,2.80
2019-05-02T23:06:43.780Z,1.10
2019-05-02T23:09:12.664Z,1.13
2019-05-02T23:11:42.522Z,1.60
2019-05-02T23:14:11.468Z,1.43
2019-05-02T23:16:42.389Z,1.57
2019-05-02T23:19:12.263Z,1.40
2019-05-02T23:21:42.260Z,1.67
2019-05-02T23:24:14.545Z,1.80
2019-05-02T23:26:47.382Z,1.10
2019-05-02T23:29:17.695Z,1.30
2019-05-02T23:31:46.232Z,1.23
2019-05-02T23:34:14.773Z,1.30
2019-05-02T23:36:43.324Z,1.43
2019-05-02T23:39:12.481Z,2.03
2019-05-02T23:41:42.122Z,1.73
2019-05-02T23:44:12.337Z,1.80
2019-05-02T23:46:42.466Z,1.03
2019-05-02T23:49:12.739Z,1.50
2019-05-02T23:51:42.682Z,1.50
2019-05-02T23:54:12.950Z,1.57
2019-05-02T23:56:43.093Z,1.93
2019-05-02T23:59:12.250Z,1.50
